Time;durP1;ratioP1;P1;durP2;ratioP2;P2;SDS_P1;SDS_P2;PMS_P1;PMS_P2;Temp;Humidity;BMP_temperature;BMP_pressure;BME280_temperature;BME280_humidity;BME280_pressure;Samples;Min_cycle;Max_cycle;Signal;HPM_P1;HPM_P2
2023/12/17 00:01:14;;;;;;;30.40;20.57;;;;;;;;;;5036771;28;20182;-70
2023/12/17 00:03:40;;;;;;;38.80;20.50;;;;;;;;;;5036433;28;20736;-70
2023/12/17 00:06:06;;;;;;;32.90;20.33;;;;;;;;;;5018416;28;20207;-70
2023/12/17 00:08:32;;;;;;;31.77;20.60;;;;;;;;;;5036551;28;20171;-70
2023/12/17 00:10:59;;;;;;;33.63;20.43;;;;;;;;;;5036951;28;20178;-69
2023/12/17 00:13:25;;;;;;;34.23;20.20;;;;;;;;;;5036361;28;20196;-69
2023/12/17 00:15:51;;;;;;;34.03;19.90;;;;;;;;;;5036240;28;20591;-69
2023/12/17 00:18:17;;;;;;;32.10;21.60;;;;;;;;;;5020373;28;20214;-70
2023/12/17 00:20:43;;;;;;;36.30;22.33;;;;;;;;;;5036243;28;20176;-69
2023/12/17 00:23:09;;;;;;;32.27;20.63;;;;;;;;;;5018322;28;20207;-70
2023/12/17 00:25:35;;;;;;;39.37;21.43;;;;;;;;;;5036069;28;20179;-70
2023/12/17 00:28:01;;;;;;;35.63;20.70;;;;;;;;;;5020104;28;20210;-71
2023/12/17 00:30:27;;;;;;;35.03;21.07;;;;;;;;;;5024515;28;20186;-70
2023/12/17 00:32:53;;;;;;;32.70;20.07;;;;;;;;;;5028407;28;20207;-70
2023/12/17 00:35:19;;;;;;;30.30;20.03;;;;;;;;;;5025775;28;20255;-70
2023/12/17 00:37:45;;;;;;;30.10;19.93;;;;;;;;;;5020088;28;20186;-70
2023/12/17 00:40:11;;;;;;;33.27;21.20;;;;;;;;;;5019377;28;20619;-70
2023/12/17 00:42:37;;;;;;;36.30;20.33;;;;;;;;;;5017339;28;20400;-71
2023/12/17 00:45:03;;;;;;;32.40;21.10;;;;;;;;;;5034936;28;20661;-70
2023/12/17 00:47:29;;;;;;;34.60;21.00;;;;;;;;;;5034716;28;20183;-70
2023/12/17 00:49:55;;;;;;;32.07;19.47;;;;;;;;;;5035140;28;20187;-70
2023/12/17 00:52:21;;;;;;;31.40;19.90;;;;;;;;;;5034931;28;20207;-70
2023/12/17 00:54:48;;;;;;;32.67;19.60;;;;;;;;;;5035179;28;20203;-70
2023/12/17 00:57:14;;;;;;;33.47;22.77;;;;;;;;;;5034966;28;20645;-70
2023/12/17 00:59:40;;;;;;;33.17;20.70;;;;;;;;;;5017143;28;20183;-70
2023/12/17 01:02:06;;;;;;;31.87;20.33;;;;;;;;;;5034843;28;20213;-69
2023/12/17 01:04:31;;;;;;;31.87;21.00;;;;;;;;;;5017540;28;20182;-70
2023/12/17 01:06:57;;;;;;;25.97;19.07;;;;;;;;;;5017001;28;20274;-70
2023/12/17 01:09:23;;;;;;;32.83;20.33;;;;;;;;;;5017200;28;20183;-70
2023/12/17 01:11:49;;;;;;;30.27;20.20;;;;;;;;;;5037278;28;20226;-69
2023/12/17 01:14:16;;;;;;;29.30;18.57;;;;;;;;;;5038701;28;20624;-69
2023/12/17 01:16:42;;;;;;;29.83;19.87;;;;;;;;;;5020963;28;20183;-71
2023/12/17 01:19:08;;;;;;;35.73;23.83;;;;;;;;;;5037928;28;20665;-70
2023/12/17 01:21:34;;;;;;;33.53;22.87;;;;;;;;;;5020606;28;20266;-70
2023/12/17 01:24:00;;;;;;;33.90;20.27;;;;;;;;;;5038525;28;20179;-70
2023/12/17 01:26:29;;;;;;;30.67;20.20;;;;;;;;;;5038326;28;20241;-70
2023/12/17 01:28:55;;;;;;;33.83;20.70;;;;;;;;;;5038029;28;20547;-70
2023/12/17 01:31:21;;;;;;;26.97;20.53;;;;;;;;;;5037935;28;20728;-70
2023/12/17 01:33:47;;;;;;;32.23;22.20;;;;;;;;;;5019752;28;20325;-69
2023/12/17 01:36:13;;;;;;;37.83;21.77;;;;;;;;;;5038020;28;20175;-71
2023/12/17 01:38:39;;;;;;;33.23;20.50;;;;;;;;;;5038666;28;20179;-69
2023/12/17 01:41:06;;;;;;;40.07;24.07;;;;;;;;;;5038119;28;20724;-70
2023/12/17 01:43:32;;;;;;;32.27;20.47;;;;;;;;;;5020486;28;20253;-71
2023/12/17 01:45:58;;;;;;;31.60;19.87;;;;;;;;;;5037789;28;20588;-70
2023/12/17 01:48:25;;;;;;;30.73;20.50;;;;;;;;;;5037401;28;20189;-70
2023/12/17 01:50:52;;;;;;;30.73;20.43;;;;;;;;;;5037625;28;20179;-69
2023/12/17 01:53:18;;;;;;;27.50;19.50;;;;;;;;;;5038433;28;20641;-70
2023/12/17 01:55:45;;;;;;;29.80;19.80;;;;;;;;;;5037658;28;20576;-69
2023/12/17 01:58:11;;;;;;;30.73;20.17;;;;;;;;;;5037370;28;20521;-70
2023/12/17 02:00:37;;;;;;;27.33;18.00;;;;;;;;;;5019583;28;20190;-69
2023/12/17 02:03:04;;;;;;;34.03;21.07;;;;;;;;;;5037486;28;20215;-70
2023/12/17 02:05:33;;;;;;;30.23;19.53;;;;;;;;;;5019308;28;20189;-70
2023/12/17 02:08:00;;;;;;;35.30;19.90;;;;;;;;;;5038302;28;20195;-70
2023/12/17 02:10:26;;;;;;;29.30;19.17;;;;;;;;;;5019141;28;20245;-70
2023/12/17 02:12:52;;;;;;;33.00;20.83;;;;;;;;;;5018939;28;20695;-69
2023/12/17 02:15:18;;;;;;;33.20;19.93;;;;;;;;;;5019052;28;20233;-69
2023/12/17 02:17:44;;;;;;;31.70;19.53;;;;;;;;;;5037549;28;20666;-70
2023/12/17 02:20:10;;;;;;;29.63;19.70;;;;;;;;;;5037505;28;20183;-70
2023/12/17 02:22:36;;;;;;;28.57;18.20;;;;;;;;;;5036944;28;20207;-70
2023/12/17 02:25:03;;;;;;;32.13;19.83;;;;;;;;;;5019216;28;20206;-70
2023/12/17 02:27:29;;;;;;;29.93;19.03;;;;;;;;;;5019276;28;20183;-69
2023/12/17 02:29:55;;;;;;;28.10;19.97;;;;;;;;;;5037151;28;20649;-69
2023/12/17 02:32:22;;;;;;;32.73;20.37;;;;;;;;;;5036932;28;20199;-70
2023/12/17 02:34:48;;;;;;;32.47;20.93;;;;;;;;;;5019186;28;20203;-70
2023/12/17 02:37:15;;;;;;;31.93;21.53;;;;;;;;;;5019414;28;20175;-70
2023/12/17 02:39:41;;;;;;;28.17;19.77;;;;;;;;;;5036881;28;20176;-70
2023/12/17 02:42:07;;;;;;;27.03;19.57;;;;;;;;;;5036590;28;20226;-70
2023/12/17 02:44:33;;;;;;;29.57;20.80;;;;;;;;;;5036682;28;20634;-70
2023/12/17 02:47:00;;;;;;;33.77;21.27;;;;;;;;;;5036488;28;20664;-70
2023/12/17 02:49:26;;;;;;;32.70;21.37;;;;;;;;;;5018824;28;20685;-70
2023/12/17 02:51:52;;;;;;;28.47;20.30;;;;;;;;;;5018447;28;20187;-70
2023/12/17 02:54:18;;;;;;;31.47;21.57;;;;;;;;;;5018695;28;20210;-70
2023/12/17 02:56:44;;;;;;;32.30;21.30;;;;;;;;;;5036061;28;20175;-70
2023/12/17 02:59:11;;;;;;;28.67;21.40;;;;;;;;;;5036234;28;20175;-70
2023/12/17 03:01:37;;;;;;;32.23;22.50;;;;;;;;;;5036073;28;20220;-70
2023/12/17 03:04:04;;;;;;;30.20;20.27;;;;;;;;;;5036227;28;20182;-69
2023/12/17 03:06:30;;;;;;;30.57;21.00;;;;;;;;;;5018239;28;20182;-70
2023/12/17 03:08:56;;;;;;;31.97;20.93;;;;;;;;;;5018230;28;20546;-70
2023/12/17 03:11:22;;;;;;;30.60;19.07;;;;;;;;;;5035930;28;20178;-71
2023/12/17 03:13:48;;;;;;;33.53;21.30;;;;;;;;;;5036140;28;20688;-70
2023/12/17 03:16:14;;;;;;;31.80;21.10;;;;;;;;;;5019168;28;20171;-70
2023/12/17 03:18:40;;;;;;;32.37;21.07;;;;;;;;;;5035744;28;20183;-70
2023/12/17 03:21:07;;;;;;;33.80;22.77;;;;;;;;;;5036349;28;20570;-70
2023/12/17 03:23:33;;;;;;;29.67;20.23;;;;;;;;;;5041863;28;20263;-70
2023/12/17 03:25:59;;;;;;;32.40;20.57;;;;;;;;;;5026046;28;20190;-70
2023/12/17 03:28:25;;;;;;;31.53;20.60;;;;;;;;;;5042885;28;20274;-70
2023/12/17 03:30:51;;;;;;;34.33;21.73;;;;;;;;;;5040684;28;20179;-70
2023/12/17 03:33:17;;;;;;;32.10;20.20;;;;;;;;;;5046422;28;20263;-70
2023/12/17 03:35:43;;;;;;;34.87;21.53;;;;;;;;;;5053668;28;20203;-70
2023/12/17 03:38:09;;;;;;;31.83;20.93;;;;;;;;;;5053879;28;20176;-70
2023/12/17 03:40:35;;;;;;;35.07;22.97;;;;;;;;;;5036239;28;20198;-71
2023/12/17 03:43:01;;;;;;;34.47;20.80;;;;;;;;;;5050978;28;20206;-70
2023/12/17 03:45:27;;;;;;;35.17;21.83;;;;;;;;;;5035675;28;20178;-70
2023/12/17 03:47:53;;;;;;;30.53;19.80;;;;;;;;;;5018308;28;20214;-70
2023/12/17 03:50:20;;;;;;;34.27;20.43;;;;;;;;;;5017701;28;20546;-69
2023/12/17 03:52:47;;;;;;;29.23;19.80;;;;;;;;;;5035351;28;20195;-70
2023/12/17 03:55:13;;;;;;;32.60;19.47;;;;;;;;;;5036217;28;20214;-70
2023/12/17 03:57:39;;;;;;;30.77;20.00;;;;;;;;;;5035447;28;20266;-70
2023/12/17 04:00:06;;;;;;;36.10;21.50;;;;;;;;;;5017627;28;20190;-70
2023/12/17 04:02:32;;;;;;;32.70;20.00;;;;;;;;;;5019596;28;20210;-69
2023/12/17 04:04:58;;;;;;;26.97;19.33;;;;;;;;;;5037669;28;20187;-70
2023/12/17 04:07:26;;;;;;;35.17;20.53;;;;;;;;;;5036477;28;20183;-70
2023/12/17 04:09:52;;;;;;;28.93;19.33;;;;;;;;;;5017145;28;20630;-69
2023/12/17 04:12:18;;;;;;;30.93;19.03;;;;;;;;;;5016627;28;20256;-70
2023/12/17 04:14:44;;;;;;;32.00;20.80;;;;;;;;;;5037871;28;20202;-70
2023/12/17 04:17:10;;;;;;;31.73;19.30;;;;;;;;;;5020399;28;20603;-69
2023/12/17 04:19:36;;;;;;;32.10;20.53;;;;;;;;;;5017631;28;20179;-69
2023/12/17 04:22:02;;;;;;;29.67;20.73;;;;;;;;;;5016611;28;20195;-70
2023/12/17 04:24:28;;;;;;;33.43;20.40;;;;;;;;;;5034498;28;20228;-70
2023/12/17 04:26:53;;;;;;;28.63;18.27;;;;;;;;;;5034346;28;20179;-69
2023/12/17 04:29:19;;;;;;;36.57;19.93;;;;;;;;;;5034057;28;20175;-70
2023/12/17 04:31:45;;;;;;;27.57;20.00;;;;;;;;;;5016255;28;20186;-69
2023/12/17 04:34:11;;;;;;;27.40;18.77;;;;;;;;;;5034119;28;20260;-70
2023/12/17 04:36:41;;;;;;;33.33;19.60;;;;;;;;;;5016226;28;20229;-70
2023/12/17 04:39:07;;;;;;;27.33;18.63;;;;;;;;;;5033943;28;20250;-70
2023/12/17 04:41:33;;;;;;;32.13;18.93;;;;;;;;;;5033831;28;20179;-70
2023/12/17 04:43:59;;;;;;;30.50;21.50;;;;;;;;;;5033780;28;20211;-70
2023/12/17 04:46:28;;;;;;;32.87;19.83;;;;;;;;;;5036298;28;20585;-70
2023/12/17 04:48:54;;;;;;;33.87;20.43;;;;;;;;;;5020396;28;20625;-70
2023/12/17 04:51:21;;;;;;;32.33;19.43;;;;;;;;;;5020410;28;20207;-70
2023/12/17 04:53:47;;;;;;;31.97;20.67;;;;;;;;;;5038383;28;20225;-70
2023/12/17 04:56:13;;;;;;;34.97;21.30;;;;;;;;;;5038534;28;20681;-72
2023/12/17 04:58:39;;;;;;;29.07;19.70;;;;;;;;;;5037773;28;20557;-70
2023/12/17 05:01:05;;;;;;;31.50;17.97;;;;;;;;;;5037742;28;20171;-69
2023/12/17 05:03:31;;;;;;;28.17;20.17;;;;;;;;;;5037469;28;20727;-70
2023/12/17 05:05:57;;;;;;;27.40;18.50;;;;;;;;;;5038102;28;20182;-70
2023/12/17 05:08:23;;;;;;;32.73;20.60;;;;;;;;;;5037777;28;20266;-70
2023/12/17 05:10:49;;;;;;;33.43;20.17;;;;;;;;;;5037963;28;20175;-70
2023/12/17 05:13:15;;;;;;;29.97;18.93;;;;;;;;;;5041902;28;20199;-70
2023/12/17 05:15:41;;;;;;;29.40;18.63;;;;;;;;;;5042971;28;20203;-69
2023/12/17 05:18:07;;;;;;;26.37;19.03;;;;;;;;;;5026521;28;20175;-70
2023/12/17 05:20:33;;;;;;;27.43;18.73;;;;;;;;;;5041383;28;20550;-70
2023/12/17 05:22:59;;;;;;;28.63;18.43;;;;;;;;;;5039905;28;20563;-70
2023/12/17 05:25:25;;;;;;;31.27;19.47;;;;;;;;;;5037625;28;20179;-70
2023/12/17 05:27:51;;;;;;;26.27;18.47;;;;;;;;;;5037606;28;20273;-70
2023/12/17 05:30:17;;;;;;;25.87;17.77;;;;;;;;;;5037576;28;20198;-70
2023/12/17 05:32:43;;;;;;;25.73;16.87;;;;;;;;;;5019371;28;20243;-70
2023/12/17 05:35:10;;;;;;;26.77;18.03;;;;;;;;;;5019873;28;20211;-70
2023/12/17 05:37:36;;;;;;;27.53;18.40;;;;;;;;;;5019362;28;20186;-70
2023/12/17 05:40:02;;;;;;;24.00;15.83;;;;;;;;;;5037364;28;20175;-70
2023/12/17 05:42:28;;;;;;;27.87;17.47;;;;;;;;;;5036905;28;20304;-70
2023/12/17 05:44:54;;;;;;;24.40;15.57;;;;;;;;;;5019149;28;20218;-70
2023/12/17 05:47:20;;;;;;;26.50;16.77;;;;;;;;;;5036598;28;20179;-70
2023/12/17 05:49:46;;;;;;;28.47;16.97;;;;;;;;;;5036760;28;20179;-70
2023/12/17 05:52:12;;;;;;;23.70;16.20;;;;;;;;;;5036538;28;20222;-70
2023/12/17 05:54:38;;;;;;;26.23;18.23;;;;;;;;;;5062541;22;20242;-66
2023/12/17 05:57:04;;;;;;;28.53;18.43;;;;;;;;;;5035751;28;20178;-66
2023/12/17 05:59:30;;;;;;;25.10;15.03;;;;;;;;;;5036532;28;20599;-68
2023/12/17 06:01:56;;;;;;;30.23;18.33;;;;;;;;;;5018283;28;20175;-69
2023/12/17 06:04:22;;;;;;;30.30;18.70;;;;;;;;;;5035890;28;20175;-69
2023/12/17 06:06:48;;;;;;;30.43;19.13;;;;;;;;;;5035923;28;20175;-69
2023/12/17 06:09:14;;;;;;;27.67;17.53;;;;;;;;;;5035917;28;20566;-69
2023/12/17 06:11:41;;;;;;;26.90;17.70;;;;;;;;;;5036136;28;20190;-69
2023/12/17 06:14:07;;;;;;;27.43;19.33;;;;;;;;;;5036098;28;20207;-68
2023/12/17 06:16:33;;;;;;;28.37;18.63;;;;;;;;;;5035745;28;20205;-66
2023/12/17 06:18:59;;;;;;;31.00;19.43;;;;;;;;;;5035822;28;20179;-69
2023/12/17 06:21:26;;;;;;;27.00;17.27;;;;;;;;;;5035884;28;20736;-67
2023/12/17 06:23:57;;;;;;;29.10;17.70;;;;;;;;;;5036083;28;20175;-69
2023/12/17 06:26:23;;;;;;;26.33;17.53;;;;;;;;;;5017838;28;20202;-67
2023/12/17 06:28:49;;;;;;;29.83;18.83;;;;;;;;;;5035724;28;20167;-67
2023/12/17 06:31:16;;;;;;;26.73;17.53;;;;;;;;;;5018161;28;20531;-67
2023/12/17 06:33:41;;;;;;;32.17;19.13;;;;;;;;;;5017977;28;20179;-69
2023/12/17 06:36:08;;;;;;;35.17;19.43;;;;;;;;;;5035253;28;20297;-69
2023/12/17 06:38:34;;;;;;;32.77;19.23;;;;;;;;;;5017492;28;20179;-68
2023/12/17 06:40:59;;;;;;;29.83;17.47;;;;;;;;;;5035431;28;20535;-67
2023/12/17 06:43:25;;;;;;;30.37;19.40;;;;;;;;;;5035503;28;20557;-67
2023/12/17 06:45:52;;;;;;;24.60;16.77;;;;;;;;;;5035330;28;20202;-67
2023/12/17 06:48:18;;;;;;;29.13;18.63;;;;;;;;;;5017479;28;20210;-69
2023/12/17 06:50:44;;;;;;;27.40;18.27;;;;;;;;;;5035283;28;20183;-67
2023/12/17 06:53:15;;;;;;;25.53;17.17;;;;;;;;;;5017568;28;20186;-67
2023/12/17 06:55:41;;;;;;;26.87;18.00;;;;;;;;;;5017233;28;20223;-66
2023/12/17 06:58:07;;;;;;;31.83;18.47;;;;;;;;;;5017533;28;20190;-67
2023/12/17 07:00:34;;;;;;;29.93;17.70;;;;;;;;;;5035374;28;20174;-67
2023/12/17 07:03:00;;;;;;;28.53;18.70;;;;;;;;;;5035783;28;20171;-69
2023/12/17 07:05:26;;;;;;;28.87;17.90;;;;;;;;;;5035112;28;20584;-67
2023/12/17 07:07:52;;;;;;;27.63;17.77;;;;;;;;;;5016900;28;20641;-67
2023/12/17 07:10:18;;;;;;;26.23;17.17;;;;;;;;;;5034577;28;20226;-67
2023/12/17 07:12:44;;;;;;;28.03;17.93;;;;;;;;;;5034671;28;20221;-67
2023/12/17 07:15:10;;;;;;;26.43;17.43;;;;;;;;;;5034642;28;20214;-67
2023/12/17 07:17:36;;;;;;;30.57;17.67;;;;;;;;;;5034764;28;20175;-67
2023/12/17 07:20:03;;;;;;;26.67;16.57;;;;;;;;;;5035185;28;20620;-67
2023/12/17 07:22:29;;;;;;;26.70;16.80;;;;;;;;;;5034732;28;20175;-67
2023/12/17 07:24:54;;;;;;;31.13;17.60;;;;;;;;;;5034432;28;20194;-67
2023/12/17 07:27:20;;;;;;;25.30;15.80;;;;;;;;;;5034492;28;20176;-67
2023/12/17 07:29:46;;;;;;;32.00;17.40;;;;;;;;;;5016696;28;20183;-67
2023/12/17 07:32:12;;;;;;;23.03;15.63;;;;;;;;;;5034616;28;20229;-67
2023/12/17 07:34:38;;;;;;;24.13;15.57;;;;;;;;;;5034090;28;20246;-70
2023/12/17 07:37:04;;;;;;;28.50;17.30;;;;;;;;;;5034261;28;20175;-69
2023/12/17 07:39:30;;;;;;;26.97;17.13;;;;;;;;;;5034315;28;20634;-69
2023/12/17 07:41:56;;;;;;;27.83;16.43;;;;;;;;;;5034196;28;20571;-70
2023/12/17 07:44:22;;;;;;;24.33;16.20;;;;;;;;;;5034023;28;20568;-69
2023/12/17 07:46:48;;;;;;;26.53;16.27;;;;;;;;;;5016270;28;20241;-69
2023/12/17 07:49:14;;;;;;;25.97;15.40;;;;;;;;;;5016422;28;20183;-67
2023/12/17 07:51:40;;;;;;;29.80;16.43;;;;;;;;;;5034018;28;20207;-69
2023/12/17 07:54:06;;;;;;;26.47;16.17;;;;;;;;;;5016704;28;20201;-71
2023/12/17 07:56:32;;;;;;;26.23;14.70;;;;;;;;;;5033803;28;20198;-70
2023/12/17 07:58:59;;;;;;;24.13;15.77;;;;;;;;;;5016616;28;20203;-70
2023/12/17 08:01:29;;;;;;;24.10;15.37;;;;;;;;;;5034657;28;20226;-69
2023/12/17 08:03:55;;;;;;;26.93;14.50;;;;;;;;;;5035204;28;20179;-68
2023/12/17 08:06:21;;;;;;;25.43;14.63;;;;;;;;;;5037482;28;20206;-68
2023/12/17 08:08:47;;;;;;;23.80;14.53;;;;;;;;;;5037211;28;20171;-68
2023/12/17 08:11:13;;;;;;;20.80;14.57;;;;;;;;;;5038596;28;20231;-69
2023/12/17 08:13:39;;;;;;;26.07;15.07;;;;;;;;;;5020970;28;20190;-69
2023/12/17 08:16:05;;;;;;;29.70;15.20;;;;;;;;;;5024993;28;20214;-69
2023/12/17 08:18:32;;;;;;;24.27;14.67;;;;;;;;;;5016375;28;20179;-68
2023/12/17 08:20:58;;;;;;;23.13;14.43;;;;;;;;;;5015938;28;20641;-68
2023/12/17 08:23:24;;;;;;;21.73;14.80;;;;;;;;;;5015987;28;20179;-68
2023/12/17 08:25:50;;;;;;;20.57;13.60;;;;;;;;;;5016369;28;20550;-68
2023/12/17 08:28:17;;;;;;;24.67;12.90;;;;;;;;;;5016353;28;20190;-68
2023/12/17 08:30:43;;;;;;;20.57;13.30;;;;;;;;;;5015922;28;20187;-68
2023/12/17 08:33:08;;;;;;;23.77;14.40;;;;;;;;;;5034030;28;20229;-67
2023/12/17 08:35:37;;;;;;;21.90;13.53;;;;;;;;;;5015879;28;20227;-68
2023/12/17 08:38:05;;;;;;;21.00;13.13;;;;;;;;;;5033785;28;20545;-68
2023/12/17 08:40:37;;;;;;;24.03;13.73;;;;;;;;;;5015819;28;20179;-68
2023/12/17 08:43:03;;;;;;;24.37;13.03;;;;;;;;;;5015942;28;20175;-68
2023/12/17 08:45:29;;;;;;;22.90;14.67;;;;;;;;;;5016100;28;20202;-68
2023/12/17 08:47:55;;;;;;;19.57;12.87;;;;;;;;;;5033920;28;20183;-68
2023/12/17 08:50:21;;;;;;;18.70;10.87;;;;;;;;;;5033478;28;20533;-67
2023/12/17 08:52:47;;;;;;;20.63;12.80;;;;;;;;;;5033953;28;20175;-67
2023/12/17 08:55:13;;;;;;;20.70;12.50;;;;;;;;;;5033177;28;20221;-67
2023/12/17 08:57:39;;;;;;;24.60;14.83;;;;;;;;;;5016473;28;20189;-68
2023/12/17 09:00:05;;;;;;;23.37;15.47;;;;;;;;;;5034716;28;20314;-67
2023/12/17 09:02:32;;;;;;;23.53;15.23;;;;;;;;;;5016497;28;20241;-67
2023/12/17 09:04:58;;;;;;;29.33;14.37;;;;;;;;;;5033712;28;20250;-67
2023/12/17 09:07:24;;;;;;;24.83;14.80;;;;;;;;;;5034157;28;20646;-68
2023/12/17 09:09:50;;;;;;;23.77;14.73;;;;;;;;;;5034072;28;20668;-68
2023/12/17 09:12:16;;;;;;;24.50;14.00;;;;;;;;;;5034468;28;20200;-68
2023/12/17 09:14:42;;;;;;;22.73;13.13;;;;;;;;;;5035214;28;20754;-68
2023/12/17 09:17:09;;;;;;;22.77;13.10;;;;;;;;;;5016476;28;20262;-68
2023/12/17 09:19:35;;;;;;;25.57;14.73;;;;;;;;;;5033746;28;20171;-68
2023/12/17 09:22:01;;;;;;;23.20;14.30;;;;;;;;;;5034684;28;20700;-68
2023/12/17 09:24:27;;;;;;;21.90;13.17;;;;;;;;;;5034549;28;20249;-68
2023/12/17 09:26:53;;;;;;;23.40;14.50;;;;;;;;;;5035239;28;20579;-68
2023/12/17 09:29:20;;;;;;;22.97;13.63;;;;;;;;;;5015899;28;20636;-68
2023/12/17 09:31:46;;;;;;;27.53;14.67;;;;;;;;;;5034452;28;20225;-67
2023/12/17 09:34:14;;;;;;;26.37;15.20;;;;;;;;;;5037158;28;20790;-68
2023/12/17 09:36:40;;;;;;;22.87;13.47;;;;;;;;;;5020790;28;20266;-67
2023/12/17 09:39:06;;;;;;;24.83;15.10;;;;;;;;;;5019537;28;20667;-67
2023/12/17 09:41:32;;;;;;;23.27;14.73;;;;;;;;;;5037450;28;20171;-67
2023/12/17 09:43:59;;;;;;;20.20;14.03;;;;;;;;;;5019189;28;20268;-68
2023/12/17 09:46:25;;;;;;;24.53;14.10;;;;;;;;;;5036771;28;20195;-67
2023/12/17 09:48:51;;;;;;;23.47;14.47;;;;;;;;;;5037232;28;20181;-69
2023/12/17 09:51:18;;;;;;;25.13;13.87;;;;;;;;;;5019500;28;20214;-67
2023/12/17 09:53:44;;;;;;;22.07;15.40;;;;;;;;;;5019109;28;20190;-67
2023/12/17 09:56:12;;;;;;;20.87;12.77;;;;;;;;;;5036478;28;20219;-67
2023/12/17 09:58:38;;;;;;;20.27;13.40;;;;;;;;;;5036621;28;20181;-67
2023/12/17 10:01:05;;;;;;;19.47;13.23;;;;;;;;;;5036853;28;20175;-68
2023/12/17 10:03:31;;;;;;;20.57;13.20;;;;;;;;;;5019558;28;20179;-70
2023/12/17 10:05:57;;;;;;;21.17;13.87;;;;;;;;;;5036880;28;20253;-70
2023/12/17 10:08:23;;;;;;;22.90;14.87;;;;;;;;;;5019324;28;20680;-70
2023/12/17 10:10:49;;;;;;;25.40;15.07;;;;;;;;;;5036787;28;20206;-71
2023/12/17 10:13:19;;;;;;;19.43;13.50;;;;;;;;;;5018815;28;20175;-68
2023/12/17 10:15:53;;;;;;;25.70;16.37;;;;;;;;;;5043990;28;20211;-68
2023/12/17 10:18:19;;;;;;;23.03;15.20;;;;;;;;;;5047175;28;20175;-69
2023/12/17 10:20:46;;;;;;;22.37;15.23;;;;;;;;;;5048938;28;20184;-68
2023/12/17 10:23:12;;;;;;;23.00;16.13;;;;;;;;;;5047073;28;20171;-68
2023/12/17 10:25:39;;;;;;;26.57;18.17;;;;;;;;;;5039420;28;20205;-68
2023/12/17 10:28:05;;;;;;;23.43;16.17;;;;;;;;;;5037209;28;20209;-68
2023/12/17 10:30:32;;;;;;;23.77;15.30;;;;;;;;;;5036537;28;20183;-68
2023/12/17 10:32:59;;;;;;;23.80;16.47;;;;;;;;;;5036535;28;20191;-67
2023/12/17 10:35:25;;;;;;;22.10;14.47;;;;;;;;;;5036083;28;20215;-67
2023/12/17 10:37:56;;;;;;;23.53;15.70;;;;;;;;;;5036060;28;20175;-68
2023/12/17 10:40:22;;;;;;;18.97;13.50;;;;;;;;;;5035824;28;20175;-67
2023/12/17 10:42:49;;;;;;;17.70;13.53;;;;;;;;;;5017659;28;20184;-69
2023/12/17 10:45:17;;;;;;;18.50;13.50;;;;;;;;;;5018002;28;20199;-67
2023/12/17 10:47:45;;;;;;;19.10;12.37;;;;;;;;;;5035724;28;20211;-68
2023/12/17 10:50:11;;;;;;;21.47;13.03;;;;;;;;;;5035998;28;20183;-68
2023/12/17 10:52:39;;;;;;;18.93;11.43;;;;;;;;;;5035780;28;20238;-68
2023/12/17 10:55:05;;;;;;;20.73;12.87;;;;;;;;;;5035812;28;20233;-68
2023/12/17 10:57:34;;;;;;;17.53;13.00;;;;;;;;;;5036014;28;20184;-69
2023/12/17 11:00:02;;;;;;;44.83;28.07;;;;;;;;;;5035937;28;20182;-67
2023/12/17 11:02:28;;;;;;;118.47;58.23;;;;;;;;;;5036698;28;20187;-68
2023/12/17 11:04:56;;;;;;;138.30;73.47;;;;;;;;;;5019574;28;20293;-67
2023/12/17 11:07:23;;;;;;;44.20;27.20;;;;;;;;;;5036555;28;20262;-68
2023/12/17 11:09:49;;;;;;;19.87;13.97;;;;;;;;;;5018010;28;20226;-68
2023/12/17 11:12:19;;;;;;;21.77;16.80;;;;;;;;;;5018680;28;20187;-68
2023/12/17 11:14:45;;;;;;;22.03;16.30;;;;;;;;;;5035622;28;20215;-67
2023/12/17 11:17:14;;;;;;;24.23;17.93;;;;;;;;;;5036862;28;20270;-68
2023/12/17 11:19:53;;;;;;;22.37;15.30;;;;;;;;;;5018853;28;20190;-68
2023/12/17 11:22:19;;;;;;;23.63;15.37;;;;;;;;;;5035845;28;20183;-67
2023/12/17 11:24:45;;;;;;;21.57;14.60;;;;;;;;;;5035702;28;20286;-68
2023/12/17 11:27:11;;;;;;;23.17;15.03;;;;;;;;;;5034899;28;20190;-68
2023/12/17 11:29:41;;;;;;;26.40;17.67;;;;;;;;;;5035537;28;20640;-68
2023/12/17 11:32:08;;;;;;;19.57;13.73;;;;;;;;;;5035499;28;20266;-67
2023/12/17 11:34:34;;;;;;;24.07;16.20;;;;;;;;;;5034675;28;20740;-68
2023/12/17 11:37:00;;;;;;;21.70;15.67;;;;;;;;;;5017877;28;20556;-68
2023/12/17 11:39:27;;;;;;;21.03;14.50;;;;;;;;;;5034746;28;20174;-68
2023/12/17 11:41:53;;;;;;;21.40;14.60;;;;;;;;;;5034931;28;20232;-68
2023/12/17 11:44:19;;;;;;;20.80;14.53;;;;;;;;;;5016673;28;20183;-68
2023/12/17 11:46:51;;;;;;;23.90;15.47;;;;;;;;;;5016841;28;20190;-68
2023/12/17 11:49:26;;;;;;;26.07;16.20;;;;;;;;;;5034945;28;20202;-68
2023/12/17 11:51:53;;;;;;;26.97;14.60;;;;;;;;;;5034346;28;20182;-68
2023/12/17 11:54:26;;;;;;;24.40;14.70;;;;;;;;;;5034874;28;20571;-68
2023/12/17 11:56:52;;;;;;;20.63;14.03;;;;;;;;;;5017269;28;20756;-69
2023/12/17 11:59:33;;;;;;;21.20;14.40;;;;;;;;;;5016859;28;20277;-69
2023/12/17 12:02:01;;;;;;;22.77;15.53;;;;;;;;;;5035176;28;20198;-68
2023/12/17 12:04:27;;;;;;;19.53;14.13;;;;;;;;;;5034704;28;20206;-69
2023/12/17 12:06:53;;;;;;;23.37;14.90;;;;;;;;;;5016847;28;20190;-68
2023/12/17 12:09:19;;;;;;;21.27;14.67;;;;;;;;;;5036460;28;20175;-68
2023/12/17 12:11:46;;;;;;;23.73;15.60;;;;;;;;;;5017819;28;20218;-68
2023/12/17 12:14:12;;;;;;;23.57;15.30;;;;;;;;;;5034480;28;20241;-69
2023/12/17 12:16:44;;;;;;;22.97;15.50;;;;;;;;;;5034628;28;20183;-68
2023/12/17 12:19:10;;;;;;;22.17;14.67;;;;;;;;;;5016721;28;20179;-68
2023/12/17 12:21:36;;;;;;;23.37;15.13;;;;;;;;;;5034709;28;20246;-68
2023/12/17 12:24:04;;;;;;;24.30;15.67;;;;;;;;;;5036130;28;20175;-68
2023/12/17 12:26:33;;;;;;;21.00;15.10;;;;;;;;;;5035670;28;20617;-70
2023/12/17 12:28:59;;;;;;;31.20;20.77;;;;;;;;;;5017987;28;20179;-69
2023/12/17 12:31:25;;;;;;;29.83;19.63;;;;;;;;;;5034654;28;20626;-68
2023/12/17 12:33:55;;;;;;;20.80;14.60;;;;;;;;;;5035654;28;20184;-68
2023/12/17 12:36:21;;;;;;;23.77;16.03;;;;;;;;;;5033670;28;20237;-69
2023/12/17 12:39:01;;;;;;;21.37;15.10;;;;;;;;;;5034022;28;20167;-69
2023/12/17 12:41:28;;;;;;;25.07;15.13;;;;;;;;;;5016709;28;20174;-68
2023/12/17 12:43:55;;;;;;;25.83;15.37;;;;;;;;;;5034156;28;20179;-68
2023/12/17 12:46:22;;;;;;;23.50;14.00;;;;;;;;;;5034229;28;20668;-68
2023/12/17 12:48:54;;;;;;;24.20;15.63;;;;;;;;;;5034530;28;20182;-68
2023/12/17 12:51:20;;;;;;;22.50;14.53;;;;;;;;;;5017323;28;20178;-68
2023/12/17 12:53:45;;;;;;;22.30;14.50;;;;;;;;;;5034038;28;20175;-68
2023/12/17 12:56:11;;;;;;;27.17;15.40;;;;;;;;;;5033952;28;20214;-67
2023/12/17 12:58:37;;;;;;;20.90;14.70;;;;;;;;;;5034997;28;20183;-69
2023/12/17 13:01:03;;;;;;;27.70;15.13;;;;;;;;;;5036702;28;20210;-68
2023/12/17 13:03:29;;;;;;;24.90;15.53;;;;;;;;;;5035162;28;20198;-68
2023/12/17 13:05:55;;;;;;;23.43;14.50;;;;;;;;;;5018528;28;20748;-69
2023/12/17 13:08:21;;;;;;;20.17;13.97;;;;;;;;;;5038107;28;20657;-68
2023/12/17 13:10:47;;;;;;;23.53;15.10;;;;;;;;;;5020607;28;20183;-68
2023/12/17 13:13:13;;;;;;;23.33;14.20;;;;;;;;;;5038826;28;20671;-68
2023/12/17 13:15:39;;;;;;;25.70;15.10;;;;;;;;;;5037936;28;20215;-68
2023/12/17 13:18:05;;;;;;;24.03;14.83;;;;;;;;;;5038480;28;20546;-68
2023/12/17 13:20:31;;;;;;;22.07;14.13;;;;;;;;;;5020831;28;20175;-68
2023/12/17 13:22:57;;;;;;;25.53;13.70;;;;;;;;;;5038055;28;20697;-68
2023/12/17 13:25:23;;;;;;;23.67;15.13;;;;;;;;;;5019825;28;20202;-68
2023/12/17 13:27:51;;;;;;;23.93;13.97;;;;;;;;;;5038896;28;20233;-68
2023/12/17 13:30:17;;;;;;;24.87;15.83;;;;;;;;;;5040295;28;20171;-68
2023/12/17 13:32:43;;;;;;;27.43;15.30;;;;;;;;;;5055482;28;20190;-68
2023/12/17 13:35:09;;;;;;;25.03;14.93;;;;;;;;;;5055133;28;20215;-69
2023/12/17 13:37:36;;;;;;;24.27;15.00;;;;;;;;;;5053988;28;20171;-67
2023/12/17 13:40:02;;;;;;;31.10;14.47;;;;;;;;;;5054073;28;20607;-69
2023/12/17 13:42:28;;;;;;;23.50;14.20;;;;;;;;;;5035805;28;20251;-70
2023/12/17 13:44:54;;;;;;;25.80;13.63;;;;;;;;;;5053262;28;20190;-68
2023/12/17 13:47:20;;;;;;;24.33;14.63;;;;;;;;;;5037006;28;20183;-69
2023/12/17 13:49:46;;;;;;;23.43;14.20;;;;;;;;;;5054516;28;20198;-69
2023/12/17 13:52:12;;;;;;;26.83;14.43;;;;;;;;;;5056927;28;20171;-68
2023/12/17 13:54:40;;;;;;;20.77;13.43;;;;;;;;;;5039544;28;20202;-68
2023/12/17 13:57:06;;;;;;;24.77;13.63;;;;;;;;;;5055928;28;20155;-69
2023/12/17 13:59:33;;;;;;;31.53;18.53;;;;;;;;;;5053547;28;20199;-68
2023/12/17 14:01:58;;;;;;;29.40;16.73;;;;;;;;;;5054714;28;20205;-68
2023/12/17 14:04:24;;;;;;;21.97;14.63;;;;;;;;;;5052591;28;20199;-68
2023/12/17 14:06:51;;;;;;;27.37;16.33;;;;;;;;;;5049063;28;20233;-69
2023/12/17 14:09:17;;;;;;;26.73;15.17;;;;;;;;;;5039990;28;20175;-67
2023/12/17 14:11:43;;;;;;;36.13;21.27;;;;;;;;;;5037806;28;20206;-68